createdAt,value
2017-01-20T00:00:33.376Z,965.05
2017-01-20T00:01:33.385Z,965.05
2017-01-20T00:02:33.389Z,965.04
2017-01-20T00:03:33.399Z,965.05
2017-01-20T00:04:33.408Z,965.07
2017-01-20T00:05:33.407Z,965.05
2017-01-20T00:06:33.414Z,965.01
2017-01-20T00:07:33.420Z,965.02
2017-01-20T00:08:33.427Z,964.99
2017-01-20T00:09:33.432Z,964.99
2017-01-20T00:10:33.438Z,964.93
2017-01-20T00:11:33.460Z,964.95
2017-01-20T00:12:33.450Z,964.94
2017-01-20T00:13:33.456Z,964.95
2017-01-20T00:14:33.460Z,964.93
2017-01-20T00:15:33.467Z,964.95
2017-01-20T00:16:33.474Z,964.97
2017-01-20T00:17:33.479Z,964.91
2017-01-20T00:18:33.488Z,964.95
2017-01-20T00:19:33.492Z,964.98
2017-01-20T00:20:33.547Z,964.96
2017-01-20T00:21:33.504Z,964.98
2017-01-20T00:22:33.509Z,965.02
2017-01-20T00:23:33.514Z,965.04
2017-01-20T00:24:33.539Z,965.04
2017-01-20T00:25:33.590Z,965.06
2017-01-20T00:26:33.532Z,965.02
2017-01-20T00:27:33.540Z,965.02
2017-01-20T00:28:33.544Z,965.02
2017-01-20T00:29:33.550Z,965.05
2017-01-20T00:30:33.556Z,965.08
2017-01-20T00:31:33.563Z,965.1
2017-01-20T00:32:33.568Z,965.07
2017-01-20T00:33:33.577Z,965.04
2017-01-20T00:34:33.583Z,965.06
2017-01-20T00:35:33.586Z,965.07
2017-01-20T00:36:33.591Z,965.08
2017-01-20T00:37:33.597Z,965.08
2017-01-20T00:38:33.603Z,965.14
2017-01-20T00:39:33.608Z,965.12
2017-01-20T00:40:33.614Z,965.1
2017-01-20T00:41:33.621Z,965.06
2017-01-20T00:42:33.627Z,965.12
2017-01-20T00:43:33.631Z,965.11
2017-01-20T00:44:33.637Z,965.1
2017-01-20T00:45:33.650Z,965.1
2017-01-20T00:46:33.698Z,965.11
2017-01-20T00:47:33.655Z,965.15
2017-01-20T00:48:33.661Z,965.16
2017-01-20T00:49:33.667Z,965.13
2017-01-20T00:50:33.673Z,965.15
2017-01-20T00:51:33.727Z,965.14
2017-01-20T00:52:33.699Z,965.13
2017-01-20T00:53:33.689Z,965.15
2017-01-20T00:54:33.696Z,965.13
2017-01-20T00:55:33.702Z,965.12
2017-01-20T00:56:33.757Z,965.12
2017-01-20T00:57:33.713Z,965.09
2017-01-20T00:58:33.718Z,965.07
2017-01-20T00:59:33.725Z,965.1
2017-01-20T01:00:33.730Z,965.06
2017-01-20T01:01:33.735Z,965.01
2017-01-20T01:02:33.741Z,965
2017-01-20T01:03:33.747Z,965
2017-01-20T01:04:33.753Z,965.01
2017-01-20T01:05:33.758Z,965.07
2017-01-20T01:06:33.765Z,965.04
2017-01-20T01:07:33.769Z,965.05
2017-01-20T01:08:33.827Z,964.97
2017-01-20T01:09:33.781Z,964.98
2017-01-20T01:10:33.787Z,964.98
2017-01-20T01:11:33.792Z,964.93
2017-01-20T01:12:33.797Z,964.94
2017-01-20T01:13:33.854Z,964.95
2017-01-20T01:14:33.808Z,965
2017-01-20T01:15:33.814Z,965
2017-01-20T01:16:33.820Z,965
2017-01-20T01:17:33.827Z,965.04
2017-01-20T01:18:33.880Z,964.99
2017-01-20T01:19:33.836Z,965.08
2017-01-20T01:20:33.840Z,965.05
2017-01-20T01:21:33.847Z,965.05
2017-01-20T01:22:33.853Z,965.01
2017-01-20T01:23:33.857Z,965.02
2017-01-20T01:24:33.863Z,965.03
2017-01-20T01:25:33.868Z,965.08
2017-01-20T01:26:33.876Z,965.05
2017-01-20T01:27:33.930Z,965.1
2017-01-20T01:28:33.887Z,965.08
2017-01-20T01:29:33.892Z,965.12
2017-01-20T01:30:33.897Z,965.13
2017-01-20T01:31:33.904Z,965.12
2017-01-20T01:32:33.908Z,965.07
2017-01-20T01:33:33.936Z,965.11
2017-01-20T01:34:33.920Z,965.11
2017-01-20T01:35:33.926Z,965.07
2017-01-20T01:36:33.932Z,965.09
2017-01-20T01:37:33.937Z,965.09
2017-01-20T01:38:33.942Z,965.12
2017-01-20T01:39:33.947Z,965.15
2017-01-20T01:40:33.954Z,965.13
2017-01-20T01:41:33.959Z,965.13
2017-01-20T01:42:33.965Z,965.09
2017-01-20T01:43:33.971Z,965.1
2017-01-20T01:44:33.976Z,965.09
2017-01-20T01:45:33.982Z,965.04
2017-01-20T01:46:33.987Z,965.09
2017-01-20T01:47:33.992Z,965.1
2017-01-20T01:48:33.999Z,965.07
2017-01-20T01:49:34.003Z,965.04
2017-01-20T01:50:34.010Z,965.04
2017-01-20T01:51:34.016Z,965.05
2017-01-20T01:52:34.021Z,965.06
2017-01-20T01:53:34.025Z,965.04
2017-01-20T01:54:34.032Z,965.05
2017-01-20T01:55:34.037Z,965.05
2017-01-20T01:56:34.041Z,965.07
2017-01-20T01:57:34.048Z,965.03
2017-01-20T01:58:34.054Z,965.09
2017-01-20T01:59:34.059Z,965.08
2017-01-20T02:00:34.065Z,965.07
2017-01-20T02:01:34.070Z,965.07
2017-01-20T02:02:34.076Z,965.07
2017-01-20T02:03:34.080Z,965.06
2017-01-20T02:04:34.087Z,965.03
2017-01-20T02:05:34.093Z,964.97
2017-01-20T02:06:34.099Z,964.98
2017-01-20T02:07:34.109Z,964.99
2017-01-20T02:08:34.109Z,964.97
2017-01-20T02:09:34.114Z,964.99
2017-01-20T02:10:34.119Z,964.93
2017-01-20T02:11:34.126Z,964.9
2017-01-20T02:12:34.133Z,964.86
2017-01-20T02:13:34.139Z,964.87
2017-01-20T02:14:34.143Z,964.85
2017-01-20T02:15:34.148Z,964.83
2017-01-20T02:16:34.153Z,964.82
2017-01-20T02:17:34.159Z,964.79
2017-01-20T02:18:34.164Z,964.8
2017-01-20T02:19:34.170Z,964.75
2017-01-20T02:20:34.175Z,964.69
2017-01-20T02:21:34.181Z,964.74
2017-01-20T02:22:34.187Z,964.72
2017-01-20T02:23:34.192Z,964.69
2017-01-20T02:24:34.197Z,964.66
2017-01-20T02:25:34.202Z,964.66
2017-01-20T02:26:34.209Z,964.68
2017-01-20T02:27:34.214Z,964.72
2017-01-20T02:28:34.220Z,964.76
2017-01-20T02:29:34.225Z,964.68
2017-01-20T02:30:34.229Z,964.68
2017-01-20T02:31:34.236Z,964.66
2017-01-20T02:32:34.241Z,964.67
2017-01-20T02:33:34.246Z,964.65
2017-01-20T02:34:34.253Z,964.65
2017-01-20T02:35:34.258Z,964.62
2017-01-20T02:36:34.263Z,964.6
2017-01-20T02:37:34.268Z,964.62
2017-01-20T02:38:34.273Z,964.61
2017-01-20T02:39:34.280Z,964.62
2017-01-20T02:40:34.283Z,964.63
2017-01-20T02:41:34.289Z,964.66
2017-01-20T02:42:34.295Z,964.65
2017-01-20T02:43:34.299Z,964.66
2017-01-20T02:44:34.305Z,964.61
2017-01-20T02:45:34.310Z,964.66
2017-01-20T02:46:34.315Z,964.65
2017-01-20T02:47:34.320Z,964.65
2017-01-20T02:48:34.348Z,964.66
2017-01-20T02:49:34.331Z,964.67
2017-01-20T02:50:34.338Z,964.66
2017-01-20T02:51:34.342Z,964.65
2017-01-20T02:52:34.347Z,964.65
2017-01-20T02:53:34.353Z,964.61
2017-01-20T02:54:34.359Z,964.63
2017-01-20T02:55:34.363Z,964.65
2017-01-20T02:56:34.369Z,964.65
2017-01-20T02:57:34.376Z,964.66
2017-01-20T02:58:34.379Z,964.65
2017-01-20T02:59:34.384Z,964.62
2017-01-20T03:00:34.390Z,964.65
2017-01-20T03:01:34.396Z,964.69
2017-01-20T03:02:34.403Z,964.71
2017-01-20T03:03:34.405Z,964.73
2017-01-20T03:04:34.412Z,964.73
2017-01-20T03:05:34.417Z,964.77
2017-01-20T03:06:34.423Z,964.74
2017-01-20T03:07:34.430Z,964.71
2017-01-20T03:08:34.434Z,964.66
2017-01-20T03:09:34.438Z,964.66
2017-01-20T03:10:34.444Z,964.68
2017-01-20T03:11:34.449Z,964.72
2017-01-20T03:12:34.455Z,964.68
2017-01-20T03:13:34.462Z,964.64
2017-01-20T03:14:34.466Z,964.62
2017-01-20T03:15:34.476Z,964.65
2017-01-20T03:16:34.476Z,964.64
2017-01-20T03:17:34.481Z,964.61
2017-01-20T03:18:34.487Z,964.64
2017-01-20T03:19:34.493Z,964.56
2017-01-20T03:20:34.497Z,964.57
2017-01-20T03:21:34.504Z,964.59
2017-01-20T03:22:34.522Z,964.57
2017-01-20T03:23:34.565Z,964.63
2017-01-20T03:24:34.519Z,964.55
2017-01-20T03:25:34.524Z,964.54
2017-01-20T03:26:34.531Z,964.53
2017-01-20T03:27:34.538Z,964.54
2017-01-20T03:28:34.540Z,964.54
2017-01-20T03:29:34.546Z,964.55
2017-01-20T03:30:34.552Z,964.53
2017-01-20T03:31:34.557Z,964.51
2017-01-20T03:32:34.562Z,964.5
2017-01-20T03:33:34.567Z,964.47
2017-01-20T03:34:34.574Z,964.52
2017-01-20T03:35:34.578Z,964.57
2017-01-20T03:36:34.583Z,964.62
2017-01-20T03:37:34.590Z,964.61
2017-01-20T03:38:34.593Z,964.64
2017-01-20T03:39:34.598Z,964.57
2017-01-20T03:40:34.606Z,964.58
2017-01-20T03:41:34.611Z,964.64
2017-01-20T03:42:34.617Z,964.61
2017-01-20T03:43:34.621Z,964.63
2017-01-20T03:44:34.627Z,964.59
2017-01-20T03:45:34.631Z,964.63
2017-01-20T03:46:34.637Z,964.63
2017-01-20T03:47:34.642Z,964.58
2017-01-20T03:48:34.649Z,964.62
2017-01-20T03:49:34.653Z,964.57
2017-01-20T03:50:34.659Z,964.61
2017-01-20T03:51:34.664Z,964.6
2017-01-20T03:52:34.670Z,964.61
2017-01-20T03:53:34.674Z,964.56
2017-01-20T03:54:34.680Z,964.57
2017-01-20T03:55:34.687Z,964.55
2017-01-20T03:56:34.696Z,964.54
2017-01-20T03:57:34.696Z,964.56
2017-01-20T03:58:34.702Z,964.54
2017-01-20T03:59:34.707Z,964.54
2017-01-20T04:00:34.711Z,964.54
2017-01-20T04:01:34.718Z,964.56
2017-01-20T04:02:34.721Z,964.54
2017-01-20T04:03:34.727Z,964.55
2017-01-20T04:04:34.733Z,964.58
2017-01-20T04:05:34.738Z,964.58
2017-01-20T04:06:34.742Z,964.57
2017-01-20T04:07:34.749Z,964.53
2017-01-20T04:08:34.754Z,964.53
2017-01-20T04:09:34.759Z,964.53
2017-01-20T04:10:34.765Z,964.59
2017-01-20T04:11:34.769Z,964.53
2017-01-20T04:12:34.775Z,964.49
2017-01-20T04:13:34.780Z,964.49
2017-01-20T04:14:34.785Z,964.47
2017-01-20T04:15:34.790Z,964.48
2017-01-20T04:16:34.795Z,964.46
2017-01-20T04:17:34.800Z,964.48
2017-01-20T04:18:34.806Z,964.43
2017-01-20T04:19:34.810Z,964.45
2017-01-20T04:20:34.815Z,964.44
2017-01-20T04:21:34.821Z,964.42
2017-01-20T04:22:34.826Z,964.43
2017-01-20T04:23:34.831Z,964.43
2017-01-20T04:24:34.837Z,964.38
2017-01-20T04:25:34.841Z,964.39
2017-01-20T04:26:34.846Z,964.42
2017-01-20T04:27:34.851Z,964.41
2017-01-20T04:28:34.856Z,964.41
2017-01-20T04:29:34.861Z,964.41
2017-01-20T04:30:34.869Z,964.38
2017-01-20T04:31:34.872Z,964.39
2017-01-20T04:32:34.876Z,964.39
2017-01-20T04:33:34.881Z,964.36
2017-01-20T04:34:34.937Z,964.38
2017-01-20T04:35:34.892Z,964.42
2017-01-20T04:36:34.901Z,964.4
2017-01-20T04:37:34.902Z,964.4
2017-01-20T04:38:34.907Z,964.39
2017-01-20T04:39:34.913Z,964.4
2017-01-20T04:40:34.918Z,964.4
2017-01-20T04:41:34.924Z,964.41
2017-01-20T04:42:34.929Z,964.4
2017-01-20T04:43:34.934Z,964.4
2017-01-20T04:44:34.939Z,964.34
2017-01-20T04:45:34.945Z,964.39
2017-01-20T04:46:34.951Z,964.38
2017-01-20T04:47:34.956Z,964.42
2017-01-20T04:48:34.961Z,964.4
2017-01-20T04:49:34.965Z,964.38
2017-01-20T04:50:35.022Z,964.34
2017-01-20T04:51:34.976Z,964.4
2017-01-20T04:52:34.983Z,964.38
2017-01-20T04:53:34.988Z,964.37
2017-01-20T04:54:34.993Z,964.39
2017-01-20T04:55:34.999Z,964.43
2017-01-20T04:56:35.005Z,964.41
2017-01-20T04:57:35.009Z,964.46
2017-01-20T04:58:35.016Z,964.46
2017-01-20T04:59:35.023Z,964.48
2017-01-20T05:00:35.027Z,964.44
2017-01-20T05:01:35.033Z,964.44
2017-01-20T05:02:35.037Z,964.5
2017-01-20T05:03:35.043Z,964.5
2017-01-20T05:04:35.057Z,964.51
2017-01-20T05:05:35.054Z,964.5
2017-01-20T05:06:35.060Z,964.5
2017-01-20T05:07:35.066Z,964.46
2017-01-20T05:08:35.071Z,964.51
2017-01-20T05:09:35.077Z,964.52
2017-01-20T05:10:35.081Z,964.55
2017-01-20T05:11:35.139Z,964.53
2017-01-20T05:12:35.093Z,964.57
2017-01-20T05:13:35.099Z,964.54
2017-01-20T05:14:35.104Z,964.55
2017-01-20T05:15:35.109Z,964.58
2017-01-20T05:16:35.115Z,964.58
2017-01-20T05:17:35.119Z,964.59
2017-01-20T05:18:35.124Z,964.56
2017-01-20T05:19:35.131Z,964.55
2017-01-20T05:20:35.136Z,964.52
2017-01-20T05:21:35.140Z,964.5
2017-01-20T05:22:35.146Z,964.53
2017-01-20T05:23:35.151Z,964.46
2017-01-20T05:24:35.157Z,964.53
2017-01-20T05:25:35.161Z,964.5
2017-01-20T05:26:35.168Z,964.48
2017-01-20T05:27:35.174Z,964.47
2017-01-20T05:28:35.177Z,964.51
2017-01-20T05:29:35.183Z,964.49
2017-01-20T05:30:35.188Z,964.45
2017-01-20T05:31:35.192Z,964.5
2017-01-20T05:32:35.222Z,964.53
2017-01-20T05:33:35.204Z,964.45
2017-01-20T05:34:35.210Z,964.45
2017-01-20T05:35:35.213Z,964.44
2017-01-20T05:36:35.219Z,964.44
2017-01-20T05:37:35.225Z,964.45
2017-01-20T05:38:35.230Z,964.48
2017-01-20T05:39:35.233Z,964.46
2017-01-20T05:40:35.240Z,964.46
2017-01-20T05:41:35.246Z,964.46
2017-01-20T05:42:35.251Z,964.46
2017-01-20T05:43:35.254Z,964.43
2017-01-20T05:44:35.260Z,964.41
2017-01-20T05:45:35.285Z,964.45
2017-01-20T05:46:35.271Z,964.39
2017-01-20T05:47:35.275Z,964.42
2017-01-20T05:48:35.281Z,964.35
2017-01-20T05:49:35.287Z,964.39
2017-01-20T05:50:35.290Z,964.39
2017-01-20T05:51:35.298Z,964.4
2017-01-20T05:52:35.353Z,964.4
2017-01-20T05:53:35.307Z,964.36
2017-01-20T05:54:35.311Z,964.42
2017-01-20T05:55:35.317Z,964.34
2017-01-20T05:56:35.323Z,964.41
2017-01-20T05:57:35.377Z,964.41
2017-01-20T05:58:35.333Z,964.42
2017-01-20T05:59:35.339Z,964.39
2017-01-20T06:00:35.344Z,964.35
2017-01-20T06:01:35.349Z,964.37
2017-01-20T06:02:35.354Z,964.33
2017-01-20T06:03:35.360Z,964.37
2017-01-20T06:04:35.366Z,964.34
2017-01-20T06:05:35.370Z,964.37
2017-01-20T06:06:35.376Z,964.29
2017-01-20T06:07:35.382Z,964.32
2017-01-20T06:08:35.385Z,964.33
2017-01-20T06:09:35.691Z,964.31
2017-01-20T06:10:35.398Z,964.34
2017-01-20T06:11:35.403Z,964.32
2017-01-20T06:12:35.410Z,964.3
2017-01-20T06:13:35.412Z,964.3
2017-01-20T06:14:35.418Z,964.27
2017-01-20T06:15:35.423Z,964.33
2017-01-20T06:16:35.428Z,964.36
2017-01-20T06:17:35.434Z,964.31
2017-01-20T06:18:35.439Z,964.35
2017-01-20T06:19:35.459Z,964.37
2017-01-20T06:20:35.449Z,964.39
2017-01-20T06:21:35.457Z,964.37
2017-01-20T06:22:35.460Z,964.35
2017-01-20T06:23:35.463Z,964.36
2017-01-20T06:24:35.519Z,964.36
2017-01-20T06:25:35.476Z,964.38
2017-01-20T06:26:35.479Z,964.41
2017-01-20T06:27:35.484Z,964.43
2017-01-20T06:28:35.489Z,964.43
2017-01-20T06:29:35.495Z,964.44
2017-01-20T06:30:35.499Z,964.47
2017-01-20T06:31:35.504Z,964.46
2017-01-20T06:32:35.509Z,964.44
2017-01-20T06:33:35.516Z,964.46
2017-01-20T06:34:35.519Z,964.43
2017-01-20T06:35:35.524Z,964.42
2017-01-20T06:36:35.530Z,964.44
2017-01-20T06:37:35.533Z,964.43
2017-01-20T06:38:35.537Z,964.46
2017-01-20T06:39:35.544Z,964.46
2017-01-20T06:40:35.548Z,964.46
2017-01-20T06:41:35.553Z,964.53
2017-01-20T06:42:35.558Z,964.48
2017-01-20T06:43:35.565Z,964.52
2017-01-20T06:44:35.569Z,964.52
2017-01-20T06:45:35.574Z,964.55
2017-01-20T06:46:35.729Z,964.59
2017-01-20T06:47:35.583Z,964.61
2017-01-20T06:48:35.590Z,964.6
2017-01-20T06:49:35.595Z,964.62
2017-01-20T06:50:35.600Z,964.66
2017-01-20T06:51:35.655Z,964.64
2017-01-20T06:52:35.613Z,964.68
2017-01-20T06:53:35.634Z,964.7
2017-01-20T06:54:35.621Z,964.68
2017-01-20T06:55:35.626Z,964.69
2017-01-20T06:56:35.681Z,964.68
2017-01-20T06:57:35.636Z,964.66
2017-01-20T06:58:35.641Z,964.65
2017-01-20T06:59:35.645Z,964.66
2017-01-20T07:00:35.651Z,964.68
2017-01-20T07:01:35.756Z,964.7
2017-01-20T07:02:35.662Z,964.69
2017-01-20T07:03:35.666Z,964.68
2017-01-20T07:04:35.671Z,964.68
2017-01-20T07:05:35.676Z,964.66
2017-01-20T07:06:35.682Z,964.67
2017-01-20T07:07:35.686Z,964.7
2017-01-20T07:08:35.692Z,964.69
2017-01-20T07:09:35.696Z,964.68
2017-01-20T07:10:35.701Z,964.74
2017-01-20T07:11:35.708Z,964.75
2017-01-20T07:12:35.712Z,964.73
2017-01-20T07:13:35.718Z,964.76
2017-01-20T07:14:35.721Z,964.73
2017-01-20T07:15:35.727Z,964.77
2017-01-20T07:16:35.831Z,964.76
2017-01-20T07:17:35.737Z,964.78
2017-01-20T07:18:35.741Z,964.76
2017-01-20T07:19:35.747Z,964.81
2017-01-20T07:20:35.757Z,964.85
2017-01-20T07:21:35.757Z,964.83
2017-01-20T07:22:35.763Z,964.88
2017-01-20T07:23:35.768Z,964.87
2017-01-20T07:24:35.777Z,964.9
2017-01-20T07:25:35.777Z,964.93
2017-01-20T07:26:35.786Z,964.91
2017-01-20T07:27:35.810Z,964.94
2017-01-20T07:28:35.794Z,964.94
2017-01-20T07:29:35.797Z,964.93
2017-01-20T07:30:35.802Z,964.91
2017-01-20T07:31:35.808Z,964.86
2017-01-20T07:32:35.914Z,964.9
2017-01-20T07:33:35.819Z,964.9
2017-01-20T07:34:35.822Z,964.89
2017-01-20T07:35:35.828Z,964.95
2017-01-20T07:36:35.833Z,964.9
2017-01-20T07:37:35.890Z,964.96
2017-01-20T07:38:35.844Z,964.96
2017-01-20T07:39:35.849Z,964.97
2017-01-20T07:40:35.854Z,964.94
2017-01-20T07:41:35.858Z,964.94
2017-01-20T07:42:35.865Z,964.94
2017-01-20T07:43:35.870Z,964.94
2017-01-20T07:44:35.875Z,964.95
2017-01-20T07:45:35.880Z,964.9
2017-01-20T07:46:35.886Z,964.96
2017-01-20T07:47:35.889Z,964.93
2017-01-20T07:48:35.896Z,964.92
2017-01-20T07:49:35.901Z,964.98
2017-01-20T07:50:36.057Z,964.92
2017-01-20T07:51:35.912Z,964.89
2017-01-20T07:52:35.918Z,964.89
2017-01-20T07:53:35.924Z,964.87
2017-01-20T07:54:35.930Z,964.9
2017-01-20T07:55:35.933Z,964.92
2017-01-20T07:56:35.939Z,964.88
2017-01-20T07:57:35.945Z,964.88
2017-01-20T07:58:35.949Z,964.9
2017-01-20T07:59:35.956Z,964.88
2017-01-20T08:00:35.960Z,964.91
2017-01-20T08:01:35.983Z,964.93
2017-01-20T08:02:35.971Z,964.89
2017-01-20T08:03:35.976Z,964.92
2017-01-20T08:04:35.982Z,964.95
2017-01-20T08:05:35.987Z,964.95
2017-01-20T08:06:35.992Z,964.98
2017-01-20T08:07:36.002Z,964.96
2017-01-20T08:08:36.003Z,964.96
2017-01-20T08:09:36.008Z,964.97
2017-01-20T08:10:36.014Z,964.91
2017-01-20T08:11:36.020Z,964.96
2017-01-20T08:12:36.024Z,964.98
2017-01-20T08:13:36.031Z,964.99
2017-01-20T08:14:36.037Z,964.96
2017-01-20T08:15:36.043Z,964.92
2017-01-20T08:16:36.098Z,964.96
2017-01-20T08:17:36.054Z,964.97
2017-01-20T08:18:36.060Z,964.97
2017-01-20T08:19:36.065Z,965.02
2017-01-20T08:20:36.071Z,964.99
2017-01-20T08:21:36.127Z,965
2017-01-20T08:22:36.082Z,965.03
2017-01-20T08:23:36.088Z,965.03
2017-01-20T08:24:36.092Z,964.99
2017-01-20T08:25:36.099Z,964.99
2017-01-20T08:26:36.154Z,965.04
2017-01-20T08:27:36.111Z,965.06
2017-01-20T08:28:36.117Z,965.06
2017-01-20T08:29:36.124Z,965.05
2017-01-20T08:30:36.130Z,965.01
2017-01-20T08:31:36.135Z,965.05
2017-01-20T08:32:36.141Z,965.08
2017-01-20T08:33:36.148Z,965.08
2017-01-20T08:34:36.153Z,965.11
2017-01-20T08:35:36.211Z,965.11
2017-01-20T08:36:36.167Z,965.16
2017-01-20T08:37:36.172Z,965.18
2017-01-20T08:38:36.177Z,965.2
2017-01-20T08:39:36.184Z,965.22
2017-01-20T08:40:36.241Z,965.19
2017-01-20T08:41:36.199Z,965.23
2017-01-20T08:42:36.215Z,965.21
2017-01-20T08:43:36.210Z,965.25
2017-01-20T08:44:36.223Z,965.26
2017-01-20T08:45:36.525Z,965.21
2017-01-20T08:46:36.232Z,965.21
2017-01-20T08:47:36.239Z,965.27
2017-01-20T08:48:36.246Z,965.27
2017-01-20T08:49:36.253Z,965.29
2017-01-20T08:50:36.310Z,965.27
2017-01-20T08:51:36.268Z,965.29
2017-01-20T08:52:36.275Z,965.29
2017-01-20T08:53:36.282Z,965.32
2017-01-20T08:54:36.289Z,965.28
2017-01-20T08:55:36.347Z,965.28
2017-01-20T08:56:36.304Z,965.36
2017-01-20T08:57:36.311Z,965.38
2017-01-20T08:58:36.318Z,965.37
2017-01-20T08:59:36.325Z,965.38
2017-01-20T09:00:36.334Z,965.35
2017-01-20T09:01:36.340Z,965.37
2017-01-20T09:02:36.348Z,965.36
2017-01-20T09:03:36.354Z,965.39
2017-01-20T09:04:36.362Z,965.36
2017-01-20T09:05:36.370Z,965.34
2017-01-20T09:06:36.377Z,965.34
2017-01-20T09:07:36.384Z,965.35
2017-01-20T09:08:36.390Z,965.39
2017-01-20T09:09:36.398Z,965.39
2017-01-20T09:10:36.476Z,965.39
2017-01-20T09:11:36.411Z,965.39
2017-01-20T09:12:36.419Z,965.38
2017-01-20T09:13:36.428Z,965.4
2017-01-20T09:14:36.435Z,965.39
2017-01-20T09:15:36.442Z,965.41
2017-01-20T09:16:36.450Z,965.39
2017-01-20T09:17:36.458Z,965.36
2017-01-20T09:18:36.464Z,965.39
2017-01-20T09:19:36.472Z,965.42
2017-01-20T09:20:36.481Z,965.47
2017-01-20T09:21:36.540Z,965.37
2017-01-20T09:22:36.498Z,965.44
2017-01-20T09:23:36.508Z,965.47
2017-01-20T09:24:36.512Z,965.45
2017-01-20T09:25:36.523Z,965.46
2017-01-20T09:26:36.580Z,965.49
2017-01-20T09:27:36.539Z,965.48
2017-01-20T09:28:36.548Z,965.49
2017-01-20T09:29:36.556Z,965.49
2017-01-20T09:30:36.566Z,965.51
2017-01-20T09:31:36.625Z,965.44
2017-01-20T09:32:36.584Z,965.43
2017-01-20T09:33:36.593Z,965.51
2017-01-20T09:34:36.602Z,965.49
2017-01-20T09:35:36.612Z,965.54
2017-01-20T09:36:36.621Z,965.58
2017-01-20T09:37:36.631Z,965.55
2017-01-20T09:38:36.641Z,965.57
2017-01-20T09:39:36.650Z,965.56
2017-01-20T09:40:36.659Z,965.57
2017-01-20T09:41:36.670Z,965.52
2017-01-20T09:42:36.680Z,965.56
2017-01-20T09:43:36.691Z,965.54
2017-01-20T09:44:36.700Z,965.58
2017-01-20T09:45:36.711Z,965.55
2017-01-20T09:46:36.721Z,965.55
2017-01-20T09:47:36.731Z,965.56
2017-01-20T09:48:36.743Z,965.53
2017-01-20T09:49:36.753Z,965.52
2017-01-20T09:50:36.763Z,965.53
2017-01-20T09:51:36.823Z,965.56
2017-01-20T09:52:36.784Z,965.58
2017-01-20T09:53:36.795Z,965.59
2017-01-20T09:54:36.806Z,965.6
2017-01-20T09:55:36.816Z,965.64
2017-01-20T09:56:36.828Z,965.62
2017-01-20T09:57:36.838Z,965.6
2017-01-20T09:58:36.848Z,965.65
2017-01-20T09:59:36.859Z,965.64
2017-01-20T10:00:36.871Z,965.68
2017-01-20T10:01:36.882Z,965.69
2017-01-20T10:02:36.893Z,965.66
2017-01-20T10:03:36.904Z,965.66
2017-01-20T10:04:36.916Z,965.72
2017-01-20T10:05:36.927Z,965.65
2017-01-20T10:06:36.937Z,965.64
2017-01-20T10:07:36.949Z,965.61
2017-01-20T10:08:36.960Z,965.64
2017-01-20T10:09:36.970Z,965.67
2017-01-20T10:10:36.984Z,965.62
2017-01-20T10:11:36.994Z,965.6
2017-01-20T10:12:37.005Z,965.59
2017-01-20T10:13:37.018Z,965.62
2017-01-20T10:14:37.028Z,965.6
2017-01-20T10:15:37.040Z,965.62
2017-01-20T10:16:37.103Z,965.65
2017-01-20T10:17:37.062Z,965.58
2017-01-20T10:18:37.074Z,965.6
2017-01-20T10:19:37.085Z,965.57
2017-01-20T10:20:37.097Z,965.58
2017-01-20T10:21:37.158Z,965.56
2017-01-20T10:22:37.119Z,965.56
2017-01-20T10:23:37.132Z,965.53
2017-01-20T10:24:37.142Z,965.54
2017-01-20T10:25:37.154Z,965.56
2017-01-20T10:26:37.215Z,965.54
2017-01-20T10:27:37.196Z,965.51
2017-01-20T10:28:37.190Z,965.49
2017-01-20T10:29:37.200Z,965.46
2017-01-20T10:30:37.213Z,965.44
2017-01-20T10:31:37.224Z,965.47
2017-01-20T10:32:37.236Z,965.48
2017-01-20T10:33:37.248Z,965.45
2017-01-20T10:34:37.261Z,965.45
2017-01-20T10:35:37.274Z,965.45
2017-01-20T10:36:37.284Z,965.45
2017-01-20T10:37:37.399Z,965.42
2017-01-20T10:38:37.309Z,965.43
2017-01-20T10:39:37.320Z,965.43
2017-01-20T10:40:37.332Z,965.4
2017-01-20T10:41:37.344Z,965.45
2017-01-20T10:42:37.357Z,965.41
2017-01-20T10:43:37.370Z,965.42
2017-01-20T10:44:37.393Z,965.4
2017-01-20T10:45:37.407Z,965.41
2017-01-20T10:46:37.464Z,965.35
2017-01-20T10:47:37.421Z,965.35
2017-01-20T10:48:37.436Z,965.36
2017-01-20T10:49:37.468Z,965.34
2017-01-20T10:50:37.458Z,965.35
2017-01-20T10:51:37.472Z,965.32
2017-01-20T10:52:37.486Z,965.32
2017-01-20T10:53:37.496Z,965.34
2017-01-20T10:54:37.516Z,965.32
2017-01-20T10:55:37.529Z,965.3
2017-01-20T10:56:37.587Z,965.29
2017-01-20T10:57:37.609Z,965.3
2017-01-20T10:58:37.571Z,965.24
2017-01-20T10:59:37.615Z,965.27
2017-01-20T11:00:37.625Z,965.24
2017-01-20T11:01:37.604Z,965.26
2017-01-20T11:02:37.667Z,965.24
2017-01-20T11:03:37.647Z,965.22
2017-01-20T11:04:37.645Z,965.22
2017-01-20T11:05:37.664Z,965.17
2017-01-20T11:06:37.724Z,965.19
2017-01-20T11:07:37.681Z,965.15
2017-01-20T11:08:37.698Z,965.17
2017-01-20T11:09:37.707Z,965.15
2017-01-20T11:10:37.743Z,965.13
2017-01-20T11:11:37.802Z,965.1
2017-01-20T11:12:37.751Z,965.08
2017-01-20T11:13:37.758Z,965.1
2017-01-20T11:14:37.770Z,965.12
2017-01-20T11:15:37.798Z,965.04
2017-01-20T11:16:37.881Z,965.05
2017-01-20T11:17:37.829Z,965.08
2017-01-20T11:18:37.847Z,965.11
2017-01-20T11:19:37.832Z,965.07
2017-01-20T11:20:37.861Z,965.06
2017-01-20T11:21:37.908Z,965.05
2017-01-20T11:22:37.870Z,965.08
2017-01-20T11:23:37.889Z,965.05
2017-01-20T11:24:37.924Z,965.03
2017-01-20T11:25:37.925Z,965.02
2017-01-20T11:26:37.973Z,965.01
2017-01-20T11:27:37.934Z,965.01
2017-01-20T11:28:37.947Z,964.97
2017-01-20T11:29:37.966Z,964.95
2017-01-20T11:30:37.972Z,964.92
2017-01-20T11:31:37.986Z,964.98
2017-01-20T11:32:37.997Z,964.91
2017-01-20T11:33:38.011Z,964.93
2017-01-20T11:34:38.024Z,964.92
2017-01-20T11:35:38.037Z,964.91
2017-01-20T11:36:38.050Z,964.95
2017-01-20T11:37:38.063Z,964.94
2017-01-20T11:38:38.075Z,964.9
2017-01-20T11:39:38.089Z,964.94
2017-01-20T11:40:38.104Z,964.96
2017-01-20T11:41:38.113Z,964.94
2017-01-20T11:42:38.127Z,964.9
2017-01-20T11:43:38.143Z,964.9
2017-01-20T11:44:38.153Z,964.94
2017-01-20T11:45:38.166Z,964.92
2017-01-20T11:46:38.179Z,964.9
2017-01-20T11:47:38.192Z,964.91
2017-01-20T11:48:38.205Z,964.88
2017-01-20T11:49:38.219Z,964.89
2017-01-20T11:50:38.231Z,964.96
2017-01-20T11:51:38.245Z,964.86
2017-01-20T11:52:38.258Z,964.86
2017-01-20T11:53:38.288Z,964.84
2017-01-20T11:54:38.285Z,964.85
2017-01-20T11:55:38.297Z,964.82
2017-01-20T11:56:38.312Z,964.81
2017-01-20T11:57:38.327Z,964.79
2017-01-20T11:58:38.394Z,964.78
2017-01-20T11:59:38.352Z,964.79
2017-01-20T12:00:38.369Z,964.75
2017-01-20T12:01:38.378Z,964.77
2017-01-20T12:02:38.392Z,964.76
2017-01-20T12:03:38.404Z,964.8
2017-01-20T12:04:38.419Z,964.76
2017-01-20T12:05:38.431Z,964.73
2017-01-20T12:06:38.445Z,964.71
2017-01-20T12:07:38.459Z,964.75
2017-01-20T12:08:38.472Z,964.73
2017-01-20T12:09:38.486Z,964.72
2017-01-20T12:10:38.499Z,964.7
2017-01-20T12:11:38.512Z,964.67
2017-01-20T12:12:38.524Z,964.68
2017-01-20T12:13:38.539Z,964.65
2017-01-20T12:14:38.551Z,964.67
2017-01-20T12:15:38.565Z,964.63
2017-01-20T12:16:38.579Z,964.6
2017-01-20T12:17:38.641Z,964.61
2017-01-20T12:18:38.605Z,964.6
2017-01-20T12:19:38.629Z,964.58
2017-01-20T12:20:38.632Z,964.61
2017-01-20T12:21:38.645Z,964.59
2017-01-20T12:22:38.658Z,964.58
2017-01-20T12:23:38.672Z,964.56
2017-01-20T12:24:38.686Z,964.55
2017-01-20T12:25:38.699Z,964.53
2017-01-20T12:26:38.715Z,964.49
2017-01-20T12:27:38.727Z,964.51
2017-01-20T12:28:38.740Z,964.53
2017-01-20T12:29:38.806Z,964.56
2017-01-20T12:30:38.767Z,964.54
2017-01-20T12:31:38.781Z,964.52